Time;durP1;ratioP1;P1;durP2;ratioP2;P2;SDS_P1;SDS_P2;PMS_P1;PMS_P2;Temp;Humidity;BMP_temperature;BMP_pressure;BME280_temperature;BME280_humidity;BME280_pressure;Samples;Min_cycle;Max_cycle;Signal;HPM_P1;HPM_P2
2023/06/05 00:00:30;;;;;;;4.80;3.03;;;;;;;17.02;75.74;101824.31;5011227;28;20030;-87
2023/06/05 00:02:55;;;;;;;3.83;2.55;;;;;;;17.00;75.88;101815.69;5012282;28;20407;-88
2023/06/05 00:05:20;;;;;;;4.10;2.47;;;;;;;17.14;74.63;101823.59;4994500;28;20046;-88
2023/06/05 00:07:46;;;;;;;2.67;1.85;;;;;;;17.01;74.87;101817.34;4994681;28;20415;-87
2023/06/05 00:10:13;;;;;;;6.97;2.40;;;;;;;17.02;74.70;101819.06;5010680;28;20041;-90
2023/06/05 00:12:38;;;;;;;3.17;2.47;;;;;;;16.96;74.53;101815.03;4994459;28;20041;-87
2023/06/05 00:15:04;;;;;;;5.35;2.65;;;;;;;16.99;74.26;101814.84;4994300;28;20435;-87
2023/06/05 00:17:30;;;;;;;2.97;1.80;;;;;;;17.03;74.31;101805.06;4994345;28;20041;-89
2023/06/05 00:19:58;;;;;;;3.58;2.38;;;;;;;17.01;74.70;101817.34;5012228;28;20442;-87
2023/06/05 00:22:25;;;;;;;6.43;2.03;;;;;;;17.03;74.48;101821.59;4994743;28;20136;-87
2023/06/05 00:24:50;;;;;;;3.85;1.95;;;;;;;16.79;74.26;101774.16;5010416;28;20060;-88
2023/06/05 00:27:16;;;;;;;4.70;2.50;;;;;;;17.02;74.09;101806.00;4993949;28;20446;-87
2023/06/05 00:29:41;;;;;;;4.18;2.25;;;;;;;17.02;74.73;101808.63;4994276;28;20062;-88
2023/06/05 00:32:07;;;;;;;12.18;2.50;;;;;;;16.99;75.47;101804.38;5010570;28;20080;-88
2023/06/05 00:34:32;;;;;;;6.45;2.40;;;;;;;17.00;75.27;101805.22;5010421;28;20018;-88
2023/06/05 00:36:58;;;;;;;6.32;3.20;;;;;;;16.99;75.64;101806.16;5009570;28;20408;-88
2023/06/05 00:39:23;;;;;;;3.13;2.17;;;;;;;17.00;75.35;101800.00;4977654;28;20052;-88
2023/06/05 00:41:49;;;;;;;3.10;2.10;;;;;;;16.80;75.05;101773.22;5010114;28;20030;-87
2023/06/05 00:44:14;;;;;;;5.63;2.40;;;;;;;16.89;75.42;101788.38;5011269;28;20462;-88
2023/06/05 00:46:40;;;;;;;4.32;2.13;;;;;;;16.91;75.60;101797.00;4977802;28;20557;-88
2023/06/05 00:49:06;;;;;;;4.18;2.72;;;;;;;16.78;75.78;101777.69;4977735;28;20044;-88
2023/06/05 00:51:31;;;;;;;4.85;2.35;;;;;;;16.94;75.56;101795.13;5009968;28;20455;-88
2023/06/05 00:53:57;;;;;;;5.43;2.65;;;;;;;16.97;75.42;101784.50;4993904;28;20515;-87
2023/06/05 00:56:22;;;;;;;3.53;2.25;;;;;;;16.95;75.55;101775.91;5009778;28;20479;-88
2023/06/05 00:58:48;;;;;;;6.88;2.22;;;;;;;16.94;75.48;101795.13;4993836;28;20423;-88
2023/06/05 01:01:14;;;;;;;4.72;2.70;;;;;;;16.96;75.50;101794.09;4977555;28;20034;-86
2023/06/05 01:03:40;;;;;;;4.90;2.47;;;;;;;16.89;76.17;101779.69;4993600;28;20090;-87
2023/06/05 01:06:06;;;;;;;7.85;2.70;;;;;;;16.68;75.98;101745.19;4977461;28;20030;-87
2023/06/05 01:08:38;;;;;;;4.07;2.50;;;;;;;16.90;76.31;101782.22;4993590;28;20030;-87
2023/06/05 01:11:05;;;;;;;6.75;2.25;;;;;;;16.85;76.92;101773.81;4978117;28;20455;-87
2023/06/05 01:13:31;;;;;;;3.42;2.70;;;;;;;16.80;77.10;101756.69;4993757;28;20026;-86
2023/06/05 01:15:57;;;;;;;4.18;2.60;;;;;;;16.87;77.28;101771.94;4993679;28;20415;-87
2023/06/05 01:18:23;;;;;;;4.43;2.55;;;;;;;16.83;77.57;101775.69;4993232;28;20039;-89
2023/06/05 01:20:48;;;;;;;6.03;2.58;;;;;;;16.77;77.72;101770.78;4977365;28;20030;-87
2023/06/05 01:23:14;;;;;;;3.78;2.30;;;;;;;16.78;77.74;101787.31;5009924;28;20061;-89
2023/06/05 01:25:42;;;;;;;5.53;2.28;;;;;;;16.70;78.36;101768.59;4993285;28;20033;-87
2023/06/05 01:28:08;;;;;;;3.65;2.80;;;;;;;16.66;78.45;101764.47;5009641;28;20112;-87
2023/06/05 01:30:39;;;;;;;9.98;3.83;;;;;;;16.70;78.70;101772.06;5010651;28;20105;-88
2023/06/05 01:33:12;;;;;;;4.07;2.70;;;;;;;16.62;78.63;101772.47;5010945;28;20080;-87
2023/06/05 01:35:39;;;;;;;5.63;2.92;;;;;;;16.57;79.36;101776.25;4977653;28;20065;-87
2023/06/05 01:38:09;;;;;;;6.35;2.80;;;;;;;16.51;79.61;101777.44;4993573;28;20499;-87
2023/06/05 01:40:35;;;;;;;13.35;3.47;;;;;;;16.49;79.92;101787.13;4993475;28;20407;-88
2023/06/05 01:43:01;;;;;;;5.75;3.20;;;;;;;16.51;79.77;101787.88;4977016;28;20064;-86
2023/06/05 01:45:26;;;;;;;5.43;3.30;;;;;;;16.44;80.11;101772.66;4993311;28;20029;-89
2023/06/05 01:47:53;;;;;;;5.13;3.10;;;;;;;16.43;80.13;101770.97;4993367;28;20026;-87
2023/06/05 01:50:18;;;;;;;12.45;3.15;;;;;;;16.52;79.96;101793.97;4997177;28;20076;-87
2023/06/05 01:52:46;;;;;;;5.55;2.97;;;;;;;16.46;80.50;101789.91;4997135;28;20127;-87
2023/06/05 01:55:20;;;;;;;6.80;3.22;;;;;;;16.56;80.31;101792.88;4997237;28;20033;-88
2023/06/05 01:57:45;;;;;;;4.43;2.63;;;;;;;16.51;80.10;101777.44;4981445;28;20499;-87
2023/06/05 02:00:13;;;;;;;9.32;3.03;;;;;;;16.54;80.49;101779.91;4996995;28;20084;-87
2023/06/05 02:02:46;;;;;;;6.25;2.80;;;;;;;16.54;80.24;101786.88;4997596;28;20056;-88
2023/06/05 02:05:12;;;;;;;3.45;2.58;;;;;;;16.49;80.53;101784.50;4997207;28;20060;-89
2023/06/05 02:07:39;;;;;;;11.23;3.33;;;;;;;16.47;80.72;101786.38;4996701;28;20100;-88
2023/06/05 02:10:06;;;;;;;5.45;3.20;;;;;;;16.47;81.00;101775.09;4996784;28;20080;-88
2023/06/05 02:12:32;;;;;;;5.25;3.05;;;;;;;16.42;80.87;101771.88;5012604;28;20033;-87
2023/06/05 02:14:59;;;;;;;6.43;3.40;;;;;;;16.34;81.45;101760.09;4996941;28;20030;-87
2023/06/05 02:17:24;;;;;;;4.32;2.75;;;;;;;16.31;81.79;101749.81;4996824;28;20109;-86
2023/06/05 02:19:50;;;;;;;7.50;3.35;;;;;;;16.38;81.86;101760.75;4996602;28;20459;-88
2023/06/05 02:22:16;;;;;;;6.50;3.42;;;;;;;16.35;81.79;101750.50;5013943;28;20398;-87
2023/06/05 02:24:42;;;;;;;5.25;3.55;;;;;;;16.44;81.81;101757.81;5012376;28;20054;-87
2023/06/05 02:27:08;;;;;;;3.83;3.28;;;;;;;16.20;82.24;101726.06;5014186;28;20030;-88
2023/06/05 02:29:33;;;;;;;4.70;3.20;;;;;;;16.26;82.49;101741.41;5012857;28;20573;-89
2023/06/05 02:31:59;;;;;;;6.85;3.55;;;;;;;16.40;82.30;101763.28;5012735;28;20022;-87
2023/06/05 02:34:24;;;;;;;8.07;3.38;;;;;;;16.41;82.25;101765.81;5013710;28;20057;-87
2023/06/05 02:36:50;;;;;;;3.55;2.83;;;;;;;16.33;82.18;101760.19;5012644;28;20021;-87
2023/06/05 02:39:16;;;;;;;8.10;3.13;;;;;;;16.33;82.83;101768.88;5012614;28;20552;-87
2023/06/05 02:41:44;;;;;;;4.25;2.90;;;;;;;16.44;82.54;101772.66;4996463;28;20062;-88
2023/06/05 02:44:09;;;;;;;5.95;3.40;;;;;;;16.38;82.46;101770.38;4996269;28;20026;-87
2023/06/05 02:46:35;;;;;;;8.13;3.40;;;;;;;16.28;82.76;101749.13;4996184;28;20033;-87
2023/06/05 02:49:00;;;;;;;5.55;3.35;;;;;;;16.33;83.00;101753.19;5012528;28;20029;-88
2023/06/05 02:51:25;;;;;;;6.50;3.78;;;;;;;16.48;82.83;101767.16;5012185;28;20034;-87
2023/06/05 02:53:51;;;;;;;7.00;3.33;;;;;;;16.48;82.44;101771.53;4979794;28;20080;-87
2023/06/05 02:56:16;;;;;;;7.68;4.00;;;;;;;16.51;81.88;101771.38;5011933;28;20045;-89
2023/06/05 02:58:43;;;;;;;7.32;3.40;;;;;;;16.45;82.54;101771.72;5012030;28;20491;-87
2023/06/05 03:01:10;;;;;;;7.68;3.05;;;;;;;16.51;82.03;101776.59;4994792;28;20033;-87
2023/06/05 03:03:35;;;;;;;6.22;3.40;;;;;;;16.46;82.15;101768.19;4979800;28;20032;-91
2023/06/05 03:06:04;;;;;;;11.63;3.40;;;;;;;16.51;82.28;101768.75;4995729;28;20410;-86
2023/06/05 03:08:33;;;;;;;6.65;3.25;;;;;;;16.55;82.10;101772.91;5012115;28;20057;-86
2023/06/05 03:11:05;;;;;;;4.75;2.80;;;;;;;16.50;82.18;101770.53;4979578;28;20036;-86
2023/06/05 03:13:32;;;;;;;4.63;3.33;;;;;;;16.51;82.38;101776.59;4979649;28;20068;-87
2023/06/05 03:15:58;;;;;;;14.68;5.55;;;;;;;16.61;82.29;101782.97;4995618;28;20467;-86
2023/06/05 03:18:24;;;;;;;8.60;5.05;;;;;;;16.62;81.75;101779.47;4995645;28;20025;-87
2023/06/05 03:20:51;;;;;;;17.40;3.60;;;;;;;16.62;82.07;101776.88;4979238;28;20065;-86
2023/06/05 03:23:16;;;;;;;4.75;2.83;;;;;;;16.32;81.53;101745.41;4995359;28;20408;-86
2023/06/05 03:25:42;;;;;;;5.13;2.63;;;;;;;16.64;81.00;101788.06;4995483;28;20061;-86
2023/06/05 03:28:08;;;;;;;9.73;2.80;;;;;;;16.65;81.20;101779.28;4979246;28;20415;-86
2023/06/05 03:30:33;;;;;;;11.05;3.20;;;;;;;16.53;81.45;101759.94;4979177;28;20049;-85
2023/06/05 03:32:58;;;;;;;5.10;3.00;;;;;;;16.62;80.91;101758.56;5011350;28;20427;-87
2023/06/05 03:35:24;;;;;;;4.40;3.05;;;;;;;16.62;80.70;101753.34;4978794;28;20026;-86
2023/06/05 03:37:49;;;;;;;6.95;2.50;;;;;;;16.54;80.53;101725.03;5004593;28;20057;-86
2023/06/05 03:40:15;;;;;;;4.53;2.80;;;;;;;16.72;80.73;101759.78;5011047;28;20030;-85
2023/06/05 03:42:41;;;;;;;4.32;2.47;;;;;;;16.67;80.89;101755.69;4994731;28;20045;-87
2023/06/05 03:45:06;;;;;;;5.43;2.95;;;;;;;16.86;80.09;101762.44;5011359;28;20041;-86
2023/06/05 03:47:34;;;;;;;4.55;2.80;;;;;;;16.82;80.48;101765.31;4978736;28;20022;-92
2023/06/05 03:50:00;;;;;;;3.72;2.42;;;;;;;16.78;80.36;101769.84;5011010;28;20406;-85
2023/06/05 03:52:26;;;;;;;3.63;2.38;;;;;;;16.80;80.04;101777.59;5011246;28;20156;-86
2023/06/05 03:54:55;;;;;;;2.88;2.20;;;;;;;16.72;79.86;101762.38;4994839;28;20450;-88
2023/06/05 03:57:21;;;;;;;3.92;2.63;;;;;;;16.68;79.54;101752.13;5012441;28;20038;-87
2023/06/05 03:59:49;;;;;;;9.57;3.60;;;;;;;16.67;79.99;101761.75;4994486;28;20057;-87
2023/06/05 04:02:15;;;;;;;7.38;3.05;;;;;;;16.65;79.89;101750.56;5011033;28;20111;-85
2023/06/05 04:04:40;;;;;;;4.25;2.70;;;;;;;17.02;79.04;101754.56;4992800;28;20054;-85
2023/06/05 04:07:06;;;;;;;5.18;2.97;;;;;;;17.53;75.90;101735.88;5010294;28;20488;-85
2023/06/05 04:09:32;;;;;;;3.78;2.83;;;;;;;17.73;76.00;101754.69;4993116;28;20113;-86
2023/06/05 04:11:57;;;;;;;11.57;2.50;;;;;;;17.81;75.83;101772.53;5008827;28;20088;-86
2023/06/05 04:14:23;;;;;;;6.50;3.33;;;;;;;18.08;74.51;101772.59;4994409;28;20025;-84
2023/06/05 04:16:48;;;;;;;6.93;3.42;;;;;;;18.76;71.47;101763.94;5010435;28;20049;-86
2023/06/05 04:19:14;;;;;;;4.25;2.67;;;;;;;18.94;69.16;101733.88;4993939;28;20037;-86
2023/06/05 04:21:40;;;;;;;8.57;2.67;;;;;;;19.36;67.83;101768.66;5010302;28;20040;-85
2023/06/05 04:24:08;;;;;;;10.95;3.58;;;;;;;19.11;67.57;101764.25;5010735;28;20022;-93
2023/06/05 04:26:34;;;;;;;4.60;2.38;;;;;;;18.80;67.88;101752.31;4991627;28;20025;-87
2023/06/05 04:29:02;;;;;;;6.45;2.70;;;;;;;18.65;70.74;101761.19;4990444;28;20124;-89
2023/06/05 04:31:30;;;;;;;4.95;3.03;;;;;;;18.27;70.10;101727.75;4991861;28;20080;-90
2023/06/05 04:33:55;;;;;;;6.68;2.83;;;;;;;18.31;71.67;101755.47;5001068;28;20121;-91
2023/06/05 04:36:20;;;;;;;4.63;3.00;;;;;;;18.14;72.22;101743.41;4977900;28;20022;-86
2023/06/05 04:38:46;;;;;;;5.60;3.40;;;;;;;17.93;73.29;101750.84;4984548;28;20049;-89
2023/06/05 04:41:12;;;;;;;3.63;2.65;;;;;;;17.87;73.36;101760.84;5010207;28;20034;-90
2023/06/05 04:43:37;;;;;;;4.65;3.20;;;;;;;17.84;74.24;101755.81;4994208;28;20030;-90
2023/06/05 04:46:02;;;;;;;4.35;3.10;;;;;;;17.76;75.15;101749.25;4978710;28;20071;-92
2023/06/05 04:48:28;;;;;;;7.35;5.10;;;;;;;18.08;74.29;101756.03;5008624;28;20022;-90
2023/06/05 04:50:55;;;;;;;5.10;3.22;;;;;;;18.53;73.17;101747.91;4990126;28;20112;-88
2023/06/05 04:53:21;;;;;;;6.63;3.72;;;;;;;18.67;70.70;101756.66;4960832;28;20050;-88
2023/06/05 04:55:47;;;;;;;4.15;2.88;;;;;;;18.53;71.77;101758.38;4989413;28;20857;-87
2023/06/05 04:58:13;;;;;;;3.95;3.05;;;;;;;18.49;71.12;101770.00;5005728;28;20060;-87
2023/06/05 05:00:39;;;;;;;9.45;3.67;;;;;;;18.27;71.77;101751.34;5008698;28;20034;-88
2023/06/05 05:03:05;;;;;;;10.13;3.95;;;;;;;18.30;72.24;101764.25;4974318;28;20120;-86
2023/06/05 05:05:30;;;;;;;4.45;3.00;;;;;;;18.18;72.88;101760.59;5009933;28;20077;-91
2023/06/05 05:07:56;;;;;;;4.28;3.15;;;;;;;18.21;73.17;101759.59;5010805;28;20034;-86
2023/06/05 05:10:21;;;;;;;7.65;3.55;;;;;;;18.26;72.74;101766.22;5009033;28;20030;-87
2023/06/05 05:12:47;;;;;;;6.93;3.28;;;;;;;18.15;72.62;101749.50;4992190;28;20037;-91
2023/06/05 05:15:12;;;;;;;9.07;2.75;;;;;;;18.10;71.12;101767.28;4991246;28;20033;-87
2023/06/05 05:17:37;;;;;;;5.30;3.20;;;;;;;18.00;72.52;101756.53;4976388;28;20038;-87
2023/06/05 05:20:06;;;;;;;5.22;3.00;;;;;;;18.06;72.86;101754.38;5005678;28;20030;-89
2023/06/05 05:22:31;;;;;;;4.43;3.05;;;;;;;18.06;72.23;101756.16;5008122;28;20018;-89
2023/06/05 05:24:57;;;;;;;11.38;4.03;;;;;;;18.09;72.66;101755.09;4974689;28;20030;-86
2023/06/05 05:27:24;;;;;;;3.40;2.55;;;;;;;17.96;72.61;101732.31;4990372;28;20110;-92
2023/06/05 05:29:49;;;;;;;5.82;3.65;;;;;;;18.18;72.12;101752.75;5009109;28;20030;-89
2023/06/05 05:32:15;;;;;;;5.25;3.15;;;;;;;18.06;72.39;101730.78;4991450;28;20462;-86
2023/06/05 05:34:40;;;;;;;11.80;3.15;;;;;;;18.18;72.38;101747.50;5008836;28;20030;-87
2023/06/05 05:37:06;;;;;;;4.43;2.63;;;;;;;18.19;72.75;101746.59;5000882;28;20439;-90
2023/06/05 05:39:31;;;;;;;6.10;2.90;;;;;;;18.28;72.09;101748.59;5010110;28;20080;-88
2023/06/05 05:41:58;;;;;;;4.15;2.53;;;;;;;18.24;71.12;101754.16;5008500;28;20033;-87
2023/06/05 05:44:24;;;;;;;17.08;3.03;;;;;;;18.21;70.48;101746.50;4998743;28;20571;-88
2023/06/05 05:46:49;;;;;;;3.63;2.13;;;;;;;18.18;69.09;101739.66;4989663;28;20033;-81
2023/06/05 05:49:15;;;;;;;5.03;2.58;;;;;;;18.15;68.81;101739.03;4986587;28;20034;-90
2023/06/05 05:51:40;;;;;;;6.35;1.88;;;;;;;18.21;68.30;101743.88;5023641;28;20088;-87
2023/06/05 05:54:06;;;;;;;13.32;2.33;;;;;;;18.11;66.63;101733.16;5000345;28;20490;-87
2023/06/05 05:56:33;;;;;;;4.25;2.65;;;;;;;18.19;65.64;101737.88;4994137;28;20483;-93
2023/06/05 05:58:59;;;;;;;4.03;2.50;;;;;;;18.23;66.25;101736.75;4993077;28;20036;-90
2023/06/05 06:01:25;;;;;;;3.90;2.20;;;;;;;18.28;66.80;101737.28;5008084;28;20034;-90
2023/06/05 06:03:51;;;;;;;3.72;2.13;;;;;;;18.31;66.71;101739.75;4992234;28;20680;-91
2023/06/05 06:06:17;;;;;;;4.35;2.25;;;;;;;18.29;68.22;101716.28;5009555;28;20030;-87
2023/06/05 06:08:42;;;;;;;4.15;2.40;;;;;;;18.52;68.12;101742.75;5007833;28;20038;-90
2023/06/05 06:11:09;;;;;;;5.00;2.60;;;;;;;18.31;67.92;101711.75;5008804;28;20030;-89
2023/06/05 06:13:34;;;;;;;3.70;2.15;;;;;;;18.39;68.61;101721.75;5008062;28;20037;-90
2023/06/05 06:16:01;;;;;;;7.05;4.03;;;;;;;18.47;68.58;101737.78;5008180;28;20025;-90
2023/06/05 06:18:27;;;;;;;4.40;2.50;;;;;;;18.52;68.47;101738.34;5006502;28;20029;-88
2023/06/05 06:20:53;;;;;;;6.35;2.60;;;;;;;18.65;68.09;101755.94;5007580;28;20044;-94
2023/06/05 06:23:18;;;;;;;3.92;2.72;;;;;;;18.49;67.71;101717.59;4988816;28;20038;-86
2023/06/05 06:25:44;;;;;;;4.47;2.58;;;;;;;18.83;67.64;101757.34;5008172;28;20061;-86
2023/06/05 06:28:10;;;;;;;3.42;2.20;;;;;;;18.84;67.19;101730.19;5009662;28;20056;-90
2023/06/05 06:30:36;;;;;;;4.55;2.60;;;;;;;19.04;66.15;101749.84;4992663;28;20519;-92
2023/06/05 06:33:03;;;;;;;4.63;2.80;;;;;;;19.16;66.38;101749.84;4980022;28;20112;-90
2023/06/05 06:35:29;;;;;;;4.25;2.70;;;;;;;19.17;66.50;101746.31;4980789;28;20030;-93
2023/06/05 06:37:56;;;;;;;6.65;2.40;;;;;;;19.14;65.27;101745.66;4988107;28;20100;-91
2023/06/05 06:40:21;;;;;;;3.95;2.25;;;;;;;19.25;64.78;101760.69;4997370;28;20113;-90
2023/06/05 06:42:47;;;;;;;7.05;3.15;;;;;;;19.25;65.21;101752.81;4978116;28;20486;-87
2023/06/05 06:45:12;;;;;;;4.18;2.42;;;;;;;19.41;65.66;101761.34;4993051;28;20041;-90
2023/06/05 06:47:38;;;;;;;3.60;2.40;;;;;;;19.48;64.32;101759.97;5010642;28;20029;-88
2023/06/05 06:50:04;;;;;;;4.40;2.60;;;;;;;19.47;64.44;101756.53;5009447;28;20072;-90
2023/06/05 06:52:30;;;;;;;5.07;2.70;;;;;;;19.42;63.83;101758.59;5008459;28;20049;-90
2023/06/05 06:54:56;;;;;;;4.15;2.58;;;;;;;19.49;64.80;101751.16;4984555;28;20076;-89
2023/06/05 06:57:21;;;;;;;3.42;2.33;;;;;;;19.62;65.15;101759.91;5009109;28;20488;-91
2023/06/05 06:59:47;;;;;;;3.08;2.03;;;;;;;19.57;64.18;101734.94;4991367;28;20527;-87
2023/06/05 07:02:13;;;;;;;4.13;2.60;;;;;;;19.86;65.31;101759.13;5007400;28;20061;-88
2023/06/05 07:04:41;;;;;;;4.90;2.50;;;;;;;20.01;64.45;101751.00;4995134;28;20077;-91
2023/06/05 07:07:09;;;;;;;3.78;2.45;;;;;;;20.19;63.69;101764.63;4991972;28;20608;-88
2023/06/05 07:09:38;;;;;;;3.53;2.38;;;;;;;20.24;62.26;101749.38;4974661;28;20038;-90
2023/06/05 07:12:05;;;;;;;3.17;2.42;;;;;;;20.29;62.42;101752.50;4990865;28;20038;-84
2023/06/05 07:14:34;;;;;;;5.45;2.72;;;;;;;20.32;61.80;101768.06;5006451;28;20041;-88
2023/06/05 07:17:00;;;;;;;4.47;2.20;;;;;;;20.31;64.02;101742.72;5009810;28;20149;-87
2023/06/05 07:19:29;;;;;;;4.82;2.55;;;;;;;20.63;63.96;101771.13;4993148;28;20379;-84
2023/06/05 07:21:59;;;;;;;6.50;2.25;;;;;;;20.67;59.38;101759.44;5010483;28;20068;-88
2023/06/05 07:24:25;;;;;;;3.00;2.17;;;;;;;20.71;59.05;101774.03;4994655;28;20049;-89
2023/06/05 07:26:52;;;;;;;4.28;2.75;;;;;;;20.83;59.64;101774.91;5009701;28;20029;-84
2023/06/05 07:29:19;;;;;;;6.65;2.97;;;;;;;20.90;59.11;101784.03;5007481;28;20109;-88
2023/06/05 07:31:46;;;;;;;3.10;1.98;;;;;;;20.95;58.78;101781.06;5009651;28;20038;-86
2023/06/05 07:34:12;;;;;;;7.22;4.13;;;;;;;21.02;59.18;101782.28;5009012;28;20042;-91
2023/06/05 07:36:38;;;;;;;3.72;2.53;;;;;;;21.04;59.11;101790.88;4994783;28;20037;-93
2023/06/05 07:39:04;;;;;;;4.13;2.38;;;;;;;21.11;58.11;101792.94;4984187;28;20062;-88
2023/06/05 07:41:30;;;;;;;4.07;2.22;;;;;;;21.21;56.97;101793.09;4992071;28;20037;-89
2023/06/05 07:43:55;;;;;;;5.07;2.45;;;;;;;21.11;55.78;101771.06;5008505;28;20487;-88
2023/06/05 07:46:21;;;;;;;4.00;1.90;;;;;;;21.32;56.30;101787.88;5008300;28;20056;-93
2023/06/05 07:48:47;;;;;;;3.65;2.03;;;;;;;21.32;55.60;101785.25;4992678;28;20033;-89
2023/06/05 07:51:13;;;;;;;2.50;1.95;;;;;;;21.47;56.39;101784.09;5011512;28;20111;-88
2023/06/05 07:53:38;;;;;;;3.75;2.78;;;;;;;21.63;56.28;101790.81;5010870;28;20480;-86
2023/06/05 07:56:04;;;;;;;5.25;2.50;;;;;;;21.48;54.26;101791.03;5002277;28;20963;-88
2023/06/05 07:58:30;;;;;;;7.43;2.70;;;;;;;21.43;55.06;101789.69;5012407;28;20037;-92
2023/06/05 08:00:56;;;;;;;7.18;2.67;;;;;;;21.34;55.13;101790.44;5013731;28;20404;-88
2023/06/05 08:03:23;;;;;;;3.35;2.25;;;;;;;21.34;55.46;101778.13;5010393;28;20025;-88
2023/06/05 08:05:49;;;;;;;4.20;2.03;;;;;;;21.49;55.84;101786.63;5005531;28;20494;-91
2023/06/05 08:08:14;;;;;;;3.55;2.45;;;;;;;21.35;55.42;101774.53;4992338;28;20041;-90
2023/06/05 08:10:40;;;;;;;5.07;2.53;;;;;;;21.21;54.56;101751.00;5009706;28;20899;-90
2023/06/05 08:13:07;;;;;;;4.00;2.22;;;;;;;21.29;54.28;101764.44;5010714;28;20030;-88
2023/06/05 08:15:33;;;;;;;3.83;1.85;;;;;;;21.57;55.35;101778.97;5009754;28;20022;-89
2023/06/05 08:17:59;;;;;;;4.35;2.55;;;;;;;21.56;55.62;101761.50;5011318;28;20352;-86
2023/06/05 08:20:25;;;;;;;5.55;2.17;;;;;;;21.72;53.99;101783.03;4999456;28;20503;-90
2023/06/05 08:22:50;;;;;;;6.75;3.85;;;;;;;21.71;54.46;101781.34;5009606;28;20057;-85
2023/06/05 08:25:16;;;;;;;13.18;8.02;;;;;;;21.73;54.34;101782.09;5008135;28;20034;-85
2023/06/05 08:27:41;;;;;;;7.82;4.03;;;;;;;21.83;54.52;101774.31;5009171;28;20033;-84
2023/06/05 08:30:08;;;;;;;5.57;2.80;;;;;;;21.84;54.53;101764.63;5009909;28;20038;-89
2023/06/05 08:32:33;;;;;;;4.55;2.85;;;;;;;22.01;53.17;101764.09;5009826;28;20030;-88
2023/06/05 08:34:59;;;;;;;4.90;2.30;;;;;;;22.30;52.46;101772.38;4992142;28;20479;-88
2023/06/05 08:37:24;;;;;;;3.60;2.35;;;;;;;22.48;51.32;101773.53;5007337;28;20064;-91
2023/06/05 08:39:50;;;;;;;3.60;2.35;;;;;;;22.60;51.78;101764.59;4998303;28;20081;-91
2023/06/05 08:42:18;;;;;;;6.70;2.30;;;;;;;22.70;52.17;101755.94;5010260;28;20403;-91
2023/06/05 08:44:47;;;;;;;3.33;2.13;;;;;;;22.77;51.38;101760.59;4992887;28;20026;-90
2023/06/05 08:47:12;;;;;;;3.50;2.40;;;;;;;22.94;50.42;101767.16;5008641;28;20057;-92
2023/06/05 08:49:38;;;;;;;7.75;2.40;;;;;;;22.88;50.14;101746.53;4993273;28;20034;-87
2023/06/05 08:52:06;;;;;;;4.65;1.98;;;;;;;23.06;50.68;101760.00;4993271;28;20038;-91
2023/06/05 08:54:39;;;;;;;6.55;2.35;;;;;;;23.16;49.37;101767.00;4991737;28;20038;-93
2023/06/05 08:57:06;;;;;;;3.67;2.22;;;;;;;23.14;49.86;101753.13;4990281;28;20036;-91
2023/06/05 08:59:32;;;;;;;3.20;2.30;;;;;;;22.97;50.51;101742.31;5006652;28;20026;-88
2023/06/05 09:01:57;;;;;;;5.63;2.80;;;;;;;23.05;51.60;101758.34;4990000;28;20041;-84
2023/06/05 09:04:29;;;;;;;5.18;2.40;;;;;;;23.27;50.73;101758.19;5009852;28;20427;-91
2023/06/05 09:06:56;;;;;;;4.28;2.03;;;;;;;23.36;49.96;101751.28;4991274;28;20026;-88
2023/06/05 09:09:21;;;;;;;9.93;2.22;;;;;;;23.51;50.80;101738.59;4977454;28;20069;-87
2023/06/05 09:11:47;;;;;;;3.55;1.90;;;;;;;23.42;48.66;101735.78;5008279;28;20507;-88
2023/06/05 09:14:12;;;;;;;3.92;2.08;;;;;;;23.54;48.39;101754.16;5010490;28;20038;-87
2023/06/05 09:16:42;;;;;;;4.25;2.20;;;;;;;23.58;47.95;101745.00;4981318;28;20041;-85
2023/06/05 09:19:08;;;;;;;5.35;2.15;;;;;;;23.63;47.76;101758.69;4992860;28;20069;-86
2023/06/05 09:21:33;;;;;;;3.05;2.22;;;;;;;23.78;47.81;101753.88;4992124;28;20607;-87
2023/06/05 09:24:18;;;;;;;4.68;2.17;;;;;;;23.91;48.70;101752.69;4988220;28;20136;-88
2023/06/05 09:27:06;;;;;;;3.55;2.30;;;;;;;24.05;47.51;101764.69;5009419;28;20038;-89
2023/06/05 09:29:32;;;;;;;3.63;1.80;;;;;;;23.85;47.69;101715.38;4973654;28;20081;-89
2023/06/05 09:32:02;;;;;;;4.15;2.20;;;;;;;24.17;47.53;101754.81;5007619;28;20112;-89
2023/06/05 09:34:33;;;;;;;3.38;2.20;;;;;;;24.33;46.55;101754.34;4992590;28;20034;-90
2023/06/05 09:37:00;;;;;;;2.75;1.85;;;;;;;24.21;47.23;101738.56;4993519;28;20586;-89
2023/06/05 09:39:26;;;;;;;3.45;2.03;;;;;;;24.27;46.07;101747.75;4998443;28;20057;-89
2023/06/05 09:41:53;;;;;;;3.85;2.33;;;;;;;24.40;46.04;101752.81;4984589;28;20029;-92
2023/06/05 09:44:19;;;;;;;4.03;2.70;;;;;;;24.30;48.34;101731.63;5006806;28;20029;-90
2023/06/05 09:46:52;;;;;;;4.55;2.35;;;;;;;24.64;46.71;101761.19;4974510;28;20384;-89
2023/06/05 09:49:17;;;;;;;86.47;47.63;;;;;;;24.73;48.77;101743.63;5007919;28;20080;-86
2023/06/05 09:51:43;;;;;;;7.57;4.93;;;;;;;24.91;47.55;101743.78;5007656;28;20145;-92
2023/06/05 09:54:08;;;;;;;3.42;2.40;;;;;;;24.96;46.83;101744.16;4989704;28;20108;-86
2023/06/05 09:56:34;;;;;;;4.38;2.40;;;;;;;24.84;46.56;101740.84;4981474;28;20034;-86
2023/06/05 09:59:00;;;;;;;4.53;2.53;;;;;;;24.79;47.88;101738.63;4988463;28;20045;-87
2023/06/05 10:01:27;;;;;;;2.83;2.10;;;;;;;24.74;47.82;101727.63;5004674;28;20026;-93
2023/06/05 10:03:58;;;;;;;3.55;2.30;;;;;;;24.98;46.89;101723.72;5020115;28;20054;-90
2023/06/05 10:06:25;;;;;;;3.53;2.40;;;;;;;24.87;46.63;101720.22;4975636;28;20045;-93
2023/06/05 10:08:52;;;;;;;3.53;2.35;;;;;;;25.06;46.67;101718.53;4985772;28;20030;-91
2023/06/05 10:11:19;;;;;;;5.35;2.55;;;;;;;25.07;47.50;101722.84;5014128;28;20052;-92
2023/06/05 10:13:45;;;;;;;2.83;1.90;;;;;;;25.17;45.55;101707.78;4994669;28;20049;-89
2023/06/05 10:16:11;;;;;;;5.20;2.45;;;;;;;25.31;45.74;101723.22;4992938;28;20485;-91
2023/06/05 10:18:36;;;;;;;3.65;2.20;;;;;;;25.30;45.06;101720.72;5001379;28;20029;-90
2023/06/05 10:21:02;;;;;;;4.10;1.98;;;;;;;25.27;45.37;101705.09;5005549;28;20037;-89
2023/06/05 10:23:28;;;;;;;3.30;2.15;;;;;;;25.36;45.32;101714.81;4994803;28;20040;-93
2023/06/05 10:25:54;;;;;;;3.25;1.85;;;;;;;25.37;44.66;101712.06;5011542;28;20125;-89
2023/06/05 10:29:02;;;;;;;7.03;2.55;;;;;;;25.56;44.27;101720.88;4997772;28;21087;-90
2023/06/05 10:31:33;;;;;;;5.25;2.38;;;;;;;25.68;44.66;101706.50;4991150;28;20116;-90
2023/06/05 10:34:04;;;;;;;2.67;1.93;;;;;;;25.72;43.66;101711.38;5003179;28;20426;-90
2023/06/05 10:36:52;;;;;;;3.08;2.13;;;;;;;25.93;43.20;101697.84;4996114;28;20041;-90
2023/06/05 10:39:18;;;;;;;3.55;2.13;;;;;;;25.87;44.02;101692.31;4981864;28;20046;-88
2023/06/05 10:41:44;;;;;;;3.65;1.80;;;;;;;25.91;43.35;101705.13;5003716;28;20037;-93
2023/06/05 10:44:09;;;;;;;2.90;2.08;;;;;;;25.98;42.97;101700.91;5012481;28;20100;-90
2023/06/05 10:46:36;;;;;;;4.18;2.17;;;;;;;25.94;41.88;101688.06;5012216;28;20037;-87
2023/06/05 10:49:05;;;;;;;3.00;1.80;;;;;;;25.87;43.16;101694.97;4997576;28;20041;-91
2023/06/05 10:51:37;;;;;;;2.92;1.95;;;;;;;26.01;43.46;101694.47;5005988;28;20129;-94
2023/06/05 10:54:04;;;;;;;3.38;2.45;;;;;;;25.98;43.82;101692.13;4996475;28;20045;-87
2023/06/05 10:57:03;;;;;;;3.15;2.17;;;;;;;26.22;43.52;101702.13;5008254;28;20118;-89
2023/06/05 10:59:29;;;;;;;3.47;2.20;;;;;;;26.13;44.21;101687.13;5010538;28;20056;-89
2023/06/05 11:02:04;;;;;;;2.67;1.98;;;;;;;25.89;44.16;101707.09;5007752;28;20204;-88
2023/06/05 11:04:48;;;;;;;3.72;2.38;;;;;;;25.87;44.36;101703.75;5000771;28;20564;-93
2023/06/05 11:07:20;;;;;;;5.22;2.63;;;;;;;25.69;44.98;101700.19;5010600;28;20038;-86
2023/06/05 11:10:20;;;;;;;3.65;2.30;;;;;;;25.66;45.78;101703.13;5008216;28;20037;-93
2023/06/05 11:12:45;;;;;;;2.95;2.00;;;;;;;25.70;46.24;101686.00;4995118;28;20030;-93
2023/06/05 11:15:38;;;;;;;4.07;2.00;;;;;;;25.86;44.82;101688.84;5009589;28;20044;-87
2023/06/05 11:18:32;;;;;;;3.03;1.90;;;;;;;25.94;45.00;101688.06;5007599;28;20105;-89
2023/06/05 11:21:00;;;;;;;2.85;2.05;;;;;;;26.07;45.61;101679.78;5012779;28;20068;-93
2023/06/05 11:23:27;;;;;;;3.35;2.28;;;;;;;26.00;45.23;101682.19;5011149;28;20096;-86